createdAt,value
2018-03-30T00:00:45.085Z,8.83
2018-03-30T00:03:12.642Z,8.53
2018-03-30T00:05:40.226Z,8.32
2018-03-30T00:08:07.824Z,8.24
2018-03-30T00:10:41.166Z,8.40
2018-03-30T00:13:09.208Z,8.83
2018-03-30T00:15:36.750Z,9.34
2018-03-30T00:18:04.349Z,8.98
2018-03-30T00:20:31.935Z,8.53
2018-03-30T00:22:59.539Z,8.36
2018-03-30T00:25:27.553Z,8.79
2018-03-30T00:27:55.468Z,9.12
2018-03-30T00:30:23.016Z,9.46
2018-03-30T00:32:50.606Z,9.74
2018-03-30T00:35:18.209Z,9.95
2018-03-30T00:37:45.746Z,9.88
2018-03-30T00:40:13.703Z,9.86
2018-03-30T00:42:41.292Z,10.10
2018-03-30T00:45:08.900Z,10.28
2018-03-30T00:47:36.919Z,10.04
2018-03-30T00:50:04.476Z,9.68
2018-03-30T00:52:32.076Z,9.82
2018-03-30T00:54:59.647Z,9.94
2018-03-30T00:57:27.201Z,8.93
2018-03-30T00:59:55.202Z,8.48
2018-03-30T01:02:23.098Z,8.77
2018-03-30T01:04:50.808Z,9.24
2018-03-30T01:07:18.363Z,9.59
2018-03-30T01:09:46.901Z,9.26
2018-03-30T01:12:14.451Z,9.34
2018-03-30T01:14:42.346Z,9.57
2018-03-30T01:17:09.943Z,9.60
2018-03-30T01:19:37.487Z,9.46
2018-03-30T01:22:05.568Z,8.55
2018-03-30T01:24:33.123Z,8.09
2018-03-30T01:27:00.711Z,7.91
2018-03-30T01:29:28.282Z,8.01
2018-03-30T01:31:55.884Z,8.07
2018-03-30T01:34:23.428Z,7.78
2018-03-30T01:36:50.966Z,7.64
2018-03-30T01:39:18.556Z,7.43
2018-03-30T01:41:46.699Z,7.26
2018-03-30T01:44:14.234Z,7.17
2018-03-30T01:46:41.832Z,7.14
2018-03-30T01:49:09.376Z,7.06
2018-03-30T01:51:37.452Z,7.10
2018-03-30T01:54:05.044Z,7.23
2018-03-30T01:56:32.640Z,7.15
2018-03-30T01:59:00.261Z,7.18
2018-03-30T02:01:28.707Z,7.27
2018-03-30T02:03:56.259Z,7.47
2018-03-30T02:06:23.813Z,7.45
2018-03-30T02:08:51.405Z,7.44
2018-03-30T02:11:19.902Z,7.64
2018-03-30T02:13:47.490Z,8.11
2018-03-30T02:16:15.040Z,8.63
2018-03-30T02:18:42.652Z,8.99
2018-03-30T02:21:10.194Z,8.94
2018-03-30T02:23:37.747Z,8.00
2018-03-30T02:26:06.754Z,7.42
2018-03-30T02:28:34.296Z,7.13
2018-03-30T02:31:02.311Z,6.89
2018-03-30T02:33:29.865Z,7.09
2018-03-30T02:35:57.413Z,7.32
2018-03-30T02:38:24.992Z,7.12
2018-03-30T02:40:53.089Z,7.31
2018-03-30T02:43:20.652Z,7.89
2018-03-30T02:45:48.742Z,7.65
2018-03-30T02:48:16.336Z,7.23
2018-03-30T02:50:43.902Z,7.46
2018-03-30T02:53:11.497Z,7.97
2018-03-30T02:55:39.100Z,8.44
2018-03-30T02:58:06.704Z,8.75
2018-03-30T03:00:35.160Z,8.65
2018-03-30T03:03:02.753Z,8.77
2018-03-30T03:05:30.295Z,9.02
2018-03-30T03:07:57.876Z,9.16
2018-03-30T03:10:25.443Z,9.01
2018-03-30T03:12:53.056Z,8.32
2018-03-30T03:15:21.279Z,8.28
2018-03-30T03:17:48.879Z,8.18
2018-03-30T03:20:16.423Z,8.36
2018-03-30T03:22:43.963Z,8.59
2018-03-30T03:25:11.568Z,8.90
2018-03-30T03:27:39.109Z,9.10
2018-03-30T03:30:06.705Z,9.31
2018-03-30T03:32:34.339Z,9.13
2018-03-30T03:35:01.919Z,8.24
2018-03-30T03:37:29.467Z,8.52
2018-03-30T03:39:57.059Z,8.41
2018-03-30T03:42:24.624Z,8.05
2018-03-30T03:44:52.735Z,7.92
2018-03-30T03:47:20.704Z,8.11
2018-03-30T03:49:48.247Z,8.39
2018-03-30T03:52:15.847Z,8.65
2018-03-30T03:54:43.390Z,8.63
2018-03-30T03:57:11.554Z,8.81
2018-03-30T03:59:39.456Z,9.06
2018-03-30T04:02:07.055Z,9.16
2018-03-30T04:04:35.813Z,9.25
2018-03-30T04:07:03.401Z,9.23
2018-03-30T04:09:31.468Z,9.14
2018-03-30T04:11:59.068Z,9.22
2018-03-30T04:14:26.664Z,9.25
2018-03-30T04:16:54.217Z,8.74
2018-03-30T04:19:22.181Z,7.68
2018-03-30T04:21:49.785Z,7.30
2018-03-30T04:24:17.339Z,7.31
2018-03-30T04:26:44.947Z,7.69
2018-03-30T04:29:12.504Z,7.85
2018-03-30T04:31:40.043Z,7.82
2018-03-30T04:34:07.644Z,8.14
2018-03-30T04:36:35.186Z,8.27
2018-03-30T04:39:03.129Z,8.45
2018-03-30T04:41:30.843Z,9.26
2018-03-30T04:43:58.456Z,9.89
2018-03-30T04:46:26.596Z,9.54
2018-03-30T04:48:54.199Z,9.77
2018-03-30T04:51:23.031Z,10.10
2018-03-30T04:53:50.628Z,10.35
2018-03-30T04:56:18.318Z,10.67
2018-03-30T04:58:45.945Z,10.03
2018-03-30T05:01:13.519Z,9.23
2018-03-30T05:03:41.152Z,9.53
2018-03-30T05:06:08.751Z,10.02
2018-03-30T05:08:36.303Z,10.69
2018-03-30T05:11:03.912Z,11.33
2018-03-30T05:13:31.461Z,12.36
2018-03-30T05:15:59.052Z,13.60
2018-03-30T05:18:26.619Z,14.02
2018-03-30T05:20:54.258Z,13.34
2018-03-30T05:23:22.000Z,13.31
2018-03-30T05:25:49.876Z,12.90
2018-03-30T05:28:17.581Z,12.57
2018-03-30T05:30:45.157Z,12.24
2018-03-30T05:33:12.765Z,12.43
2018-03-30T05:35:40.568Z,13.02
2018-03-30T05:38:08.576Z,12.68
2018-03-30T05:40:36.180Z,11.66
2018-03-30T05:43:03.745Z,11.62
2018-03-30T05:45:32.261Z,11.07
2018-03-30T05:48:00.753Z,10.74
2018-03-30T05:50:28.581Z,11.50
2018-03-30T05:52:56.948Z,11.80
2018-03-30T05:55:25.386Z,11.95
2018-03-30T05:57:53.915Z,12.08
2018-03-30T06:00:22.081Z,12.37
2018-03-30T06:02:49.702Z,13.04
2018-03-30T06:05:17.304Z,14.34
2018-03-30T06:07:45.425Z,14.93
2018-03-30T06:10:13.579Z,14.60
2018-03-30T06:12:41.862Z,14.46
2018-03-30T06:15:09.476Z,14.57
2018-03-30T06:17:37.671Z,14.59
2018-03-30T06:20:05.287Z,14.61
2018-03-30T06:22:32.856Z,15.30
2018-03-30T06:25:01.635Z,15.44
2018-03-30T06:27:29.442Z,14.90
2018-03-30T06:29:57.818Z,14.80
2018-03-30T06:32:26.608Z,15.35
2018-03-30T06:34:55.044Z,15.41
2018-03-30T06:37:22.624Z,15.06
2018-03-30T06:39:50.214Z,15.11
2018-03-30T06:42:17.813Z,15.10
2018-03-30T06:44:45.820Z,14.96
2018-03-30T06:47:13.664Z,14.98
2018-03-30T06:49:41.245Z,14.99
2018-03-30T06:52:08.889Z,14.77
2018-03-30T06:54:36.463Z,15.04
2018-03-30T06:57:04.041Z,15.32
2018-03-30T06:59:32.041Z,15.57
2018-03-30T07:01:59.722Z,15.86
2018-03-30T07:04:27.420Z,16.09
2018-03-30T07:06:55.015Z,16.30
2018-03-30T07:09:22.643Z,16.83
2018-03-30T07:11:50.252Z,16.85
2018-03-30T07:14:18.185Z,17.14
2018-03-30T07:16:45.729Z,17.52
2018-03-30T07:19:13.333Z,17.71
2018-03-30T07:21:41.019Z,17.98
2018-03-30T07:24:08.576Z,18.18
2018-03-30T07:26:36.385Z,18.23
2018-03-30T07:29:04.334Z,18.20
2018-03-30T07:31:32.222Z,17.91
2018-03-30T07:33:59.786Z,17.81
2018-03-30T07:36:27.348Z,17.60
2018-03-30T07:38:54.955Z,17.59
2018-03-30T07:41:22.972Z,17.18
2018-03-30T07:43:50.576Z,16.61
2018-03-30T07:46:18.879Z,16.18
2018-03-30T07:48:46.489Z,15.99
2018-03-30T07:51:14.083Z,15.72
2018-03-30T07:53:41.776Z,16.15
2018-03-30T07:56:09.975Z,16.53
2018-03-30T07:58:37.633Z,16.85
2018-03-30T08:01:05.559Z,17.01
2018-03-30T08:03:33.270Z,17.10
2018-03-30T08:06:01.776Z,17.18
2018-03-30T08:08:29.389Z,17.19
2018-03-30T08:10:56.948Z,17.28
2018-03-30T08:13:24.514Z,17.30
2018-03-30T08:15:52.142Z,16.89
2018-03-30T08:18:19.688Z,17.05
2018-03-30T08:20:48.134Z,17.14
2018-03-30T08:23:15.737Z,17.23
2018-03-30T08:25:43.312Z,17.32
2018-03-30T08:28:10.883Z,17.42
2018-03-30T08:30:38.540Z,17.46
2018-03-30T08:33:06.244Z,17.49
2018-03-30T08:35:33.796Z,17.55
2018-03-30T08:38:01.391Z,17.56
2018-03-30T08:40:29.325Z,17.57
2018-03-30T08:42:57.686Z,17.58
2018-03-30T08:45:25.437Z,17.57
2018-03-30T08:47:53.177Z,17.54
2018-03-30T08:50:20.740Z,17.52
2018-03-30T08:52:48.312Z,17.51
2018-03-30T08:55:15.923Z,17.57
2018-03-30T08:57:43.484Z,17.62
2018-03-30T09:00:11.189Z,17.69
2018-03-30T09:02:38.816Z,17.73
2018-03-30T09:05:06.672Z,17.73
2018-03-30T09:07:34.277Z,17.74
2018-03-30T09:10:02.226Z,17.76
2018-03-30T09:12:29.982Z,17.75
2018-03-30T09:14:57.540Z,17.75
2018-03-30T09:17:25.143Z,17.82
2018-03-30T09:19:52.902Z,17.82
2018-03-30T09:22:20.450Z,17.83
2018-03-30T09:24:48.896Z,17.82
2018-03-30T09:27:16.737Z,17.80
2018-03-30T09:29:49.885Z,17.79
2018-03-30T09:32:17.463Z,17.73
2018-03-30T09:34:45.066Z,17.71
2018-03-30T09:37:13.090Z,17.83
2018-03-30T09:39:40.994Z,17.84
2018-03-30T09:42:08.557Z,17.81
2018-03-30T09:44:36.120Z,17.76
2018-03-30T09:47:03.717Z,17.75
2018-03-30T09:49:31.324Z,17.74
2018-03-30T09:51:58.868Z,17.87
2018-03-30T09:54:26.456Z,17.99
2018-03-30T09:56:54.282Z,18.07
2018-03-30T09:59:21.887Z,18.03
2018-03-30T10:01:52.273Z,17.94
2018-03-30T10:04:24.020Z,17.90
2018-03-30T10:06:52.103Z,17.89
2018-03-30T10:09:19.698Z,17.86
2018-03-30T10:11:47.275Z,17.94
2018-03-30T10:14:14.890Z,17.88
2018-03-30T10:16:42.449Z,17.83
2018-03-30T10:19:10.469Z,17.77
2018-03-30T10:21:38.134Z,17.73
2018-03-30T10:24:05.682Z,17.71
2018-03-30T10:26:33.296Z,17.68
2018-03-30T10:29:00.847Z,17.65
2018-03-30T10:31:28.461Z,17.67
2018-03-30T10:33:56.264Z,17.64
2018-03-30T10:36:23.884Z,17.76
2018-03-30T10:38:51.460Z,17.72
2018-03-30T10:41:19.024Z,17.69
2018-03-30T10:43:46.655Z,17.68
2018-03-30T10:46:14.465Z,17.65
2018-03-30T10:48:42.239Z,17.64
2018-03-30T10:51:09.966Z,17.62
2018-03-30T10:53:37.828Z,17.61
2018-03-30T10:56:05.832Z,17.70
2018-03-30T10:58:33.465Z,17.76
2018-03-30T11:01:01.034Z,17.70
2018-03-30T11:03:28.692Z,17.69
2018-03-30T11:05:56.255Z,17.64
2018-03-30T11:08:23.812Z,17.63
2018-03-30T11:10:51.416Z,17.66
2018-03-30T11:13:19.996Z,17.67
2018-03-30T11:15:48.067Z,17.65
2018-03-30T11:18:15.668Z,17.63
2018-03-30T11:20:43.239Z,17.62
2018-03-30T11:23:10.916Z,17.61
2018-03-30T11:25:38.703Z,17.59
2018-03-30T11:28:07.154Z,17.67
2018-03-30T11:30:34.719Z,17.75
2018-03-30T11:33:02.349Z,17.78
2018-03-30T11:35:29.949Z,17.74
2018-03-30T11:37:57.524Z,17.73
2018-03-30T11:40:26.096Z,17.69
2018-03-30T11:42:53.702Z,17.65
2018-03-30T11:45:21.739Z,17.72
2018-03-30T11:47:49.519Z,17.70
2018-03-30T11:50:17.332Z,17.65
2018-03-30T11:52:45.000Z,17.62
2018-03-30T11:55:12.769Z,17.70
2018-03-30T11:57:40.538Z,17.69
2018-03-30T12:00:08.925Z,17.67
2018-03-30T12:02:37.557Z,17.67
2018-03-30T12:05:05.702Z,17.64
2018-03-30T12:07:33.483Z,17.64
2018-03-30T12:10:01.266Z,17.65
2018-03-30T12:12:28.984Z,17.64
2018-03-30T12:14:56.599Z,17.64
2018-03-30T12:17:24.589Z,17.63
2018-03-30T12:19:52.326Z,17.63
2018-03-30T12:22:20.384Z,17.80
2018-03-30T12:24:48.492Z,17.96
2018-03-30T12:27:16.946Z,17.94
2018-03-30T12:29:46.112Z,17.91
2018-03-30T12:32:15.229Z,17.88
2018-03-30T12:34:43.784Z,17.84
2018-03-30T12:37:12.472Z,17.82
2018-03-30T12:39:40.658Z,17.82
2018-03-30T12:42:08.514Z,17.82
2018-03-30T12:44:36.408Z,17.82
2018-03-30T12:47:04.343Z,17.85
2018-03-30T12:49:32.521Z,17.84
2018-03-30T12:52:00.649Z,17.99
2018-03-30T12:54:28.721Z,18.01
2018-03-30T12:56:56.959Z,17.98
2018-03-30T12:59:24.944Z,17.95
2018-03-30T13:01:54.116Z,17.93
2018-03-30T13:04:22.789Z,18.01
2018-03-30T13:06:50.721Z,18.01
2018-03-30T13:09:19.230Z,18.01
2018-03-30T13:11:47.553Z,17.98
2018-03-30T13:14:15.987Z,17.97
2018-03-30T13:16:44.094Z,17.97
2018-03-30T13:19:11.880Z,17.96
2018-03-30T13:21:39.692Z,18.08
2018-03-30T13:24:07.479Z,18.09
2018-03-30T13:26:35.511Z,18.06
2018-03-30T13:29:03.708Z,18.06
2018-03-30T13:31:32.609Z,18.15
2018-03-30T13:34:00.939Z,18.16
2018-03-30T13:36:29.162Z,18.14
2018-03-30T13:38:57.235Z,18.13
2018-03-30T13:41:25.890Z,18.12
2018-03-30T13:43:53.986Z,18.10
2018-03-30T13:46:22.026Z,18.09
2018-03-30T13:48:50.058Z,18.10
2018-03-30T13:51:29.314Z,18.09
2018-03-30T13:53:58.122Z,18.09
2018-03-30T13:56:28.818Z,18.09
2018-03-30T13:58:57.462Z,18.08
2018-03-30T14:01:43.022Z,18.09
2018-03-30T14:07:16.140Z,18.07
2018-03-30T14:09:44.677Z,18.10
2018-03-30T14:12:13.392Z,18.11
2018-03-30T14:14:41.878Z,18.11
2018-03-30T14:17:12.291Z,18.12
2018-03-30T14:19:41.482Z,18.13
2018-03-30T14:22:16.142Z,18.14
2018-03-30T14:24:49.032Z,18.13
2018-03-30T14:27:43.427Z,18.14
2018-03-30T14:30:16.705Z,18.11
2018-03-30T14:36:00.930Z,18.11
2018-03-30T14:38:40.465Z,18.11
2018-03-30T14:41:09.392Z,18.10
2018-03-30T14:43:54.779Z,18.11
2018-03-30T14:46:34.249Z,18.10
2018-03-30T14:49:03.300Z,18.11
2018-03-30T14:51:40.406Z,18.11
2018-03-30T14:54:09.620Z,18.10
2018-03-30T14:56:40.630Z,18.10
2018-03-30T14:59:22.163Z,18.10
2018-03-30T15:01:52.690Z,18.09
2018-03-30T15:07:25.698Z,18.07
2018-03-30T15:10:22.089Z,18.06
2018-03-30T15:12:59.063Z,18.05
2018-03-30T15:15:36.057Z,18.03
2018-03-30T15:18:11.609Z,18.02
2018-03-30T15:20:48.157Z,18.01
2018-03-30T15:23:22.946Z,17.99
2018-03-30T15:25:51.268Z,17.97
2018-03-30T15:28:24.149Z,17.96
2018-03-30T15:31:01.697Z,17.94
2018-03-30T15:36:48.792Z,17.90
2018-03-30T15:39:17.884Z,17.87
2018-03-30T15:41:46.568Z,17.84
2018-03-30T15:44:15.715Z,17.81
2018-03-30T15:46:45.138Z,17.78
2018-03-30T15:49:13.338Z,17.75
2018-03-30T15:54:38.010Z,17.68
2018-03-30T15:57:05.897Z,17.66
2018-03-30T15:59:34.275Z,17.64
2018-03-30T16:02:02.663Z,17.63
2018-03-30T16:04:31.292Z,17.61
2018-03-30T16:07:00.299Z,17.60
2018-03-30T16:09:32.048Z,17.58
2018-03-30T16:12:03.557Z,17.55
2018-03-30T16:14:32.842Z,17.52
2018-03-30T16:17:02.368Z,17.48
2018-03-30T16:19:30.157Z,17.43
2018-03-30T16:21:57.989Z,17.41
2018-03-30T16:24:25.864Z,17.37
2018-03-30T16:26:53.830Z,17.34
2018-03-30T16:29:21.587Z,17.32
2018-03-30T16:31:49.258Z,17.30
2018-03-30T16:34:17.420Z,17.27
2018-03-30T16:36:46.322Z,17.25
2018-03-30T16:39:14.731Z,17.21
2018-03-30T16:41:43.885Z,17.21
2018-03-30T16:44:11.996Z,17.19
2018-03-30T16:46:39.856Z,17.16
2018-03-30T16:49:07.933Z,17.12
2018-03-30T16:51:35.763Z,17.14
2018-03-30T16:54:04.189Z,17.09
2018-03-30T16:56:32.239Z,17.06
2018-03-30T16:59:00.065Z,17.02
2018-03-30T17:01:27.840Z,16.99
2018-03-30T17:03:55.604Z,16.97
2018-03-30T17:06:23.563Z,16.95
2018-03-30T17:08:51.943Z,16.92
2018-03-30T17:11:20.160Z,16.91
2018-03-30T17:13:48.658Z,16.90
2018-03-30T17:16:17.034Z,16.86
2018-03-30T17:18:46.687Z,16.77
2018-03-30T17:21:14.381Z,16.76
2018-03-30T17:23:42.775Z,16.71
2018-03-30T17:26:11.837Z,16.73
2018-03-30T17:28:40.206Z,16.74
2018-03-30T17:31:08.381Z,16.73
2018-03-30T17:33:36.573Z,16.70
2018-03-30T17:36:04.321Z,16.69
2018-03-30T17:38:32.885Z,16.68
2018-03-30T17:41:00.658Z,16.66
2018-03-30T17:43:28.623Z,16.65
2018-03-30T17:45:56.817Z,16.63
2018-03-30T17:48:24.794Z,16.64
2018-03-30T17:50:52.632Z,16.64
2018-03-30T17:53:20.109Z,16.64
2018-03-30T17:55:48.061Z,16.60
2018-03-30T17:58:17.356Z,16.42
2018-03-30T18:00:46.048Z,16.43
2018-03-30T18:03:15.490Z,16.43
2018-03-30T18:05:44.031Z,16.39
2018-03-30T18:08:13.037Z,16.28
2018-03-30T18:10:41.204Z,16.30
2018-03-30T18:13:11.412Z,16.27
2018-03-30T18:15:39.533Z,16.25
2018-03-30T18:18:09.218Z,16.23
2018-03-30T18:20:37.784Z,16.20
2018-03-30T18:23:06.770Z,16.17
2018-03-30T18:25:35.292Z,16.18
2018-03-30T18:28:04.867Z,16.19
2018-03-30T18:30:33.505Z,16.11
2018-03-30T18:33:01.512Z,16.11
2018-03-30T18:35:31.367Z,16.11
2018-03-30T18:37:59.400Z,16.12
2018-03-30T18:40:27.263Z,16.11
2018-03-30T18:42:56.155Z,16.02
2018-03-30T18:45:25.382Z,15.94
2018-03-30T18:47:55.062Z,15.92
2018-03-30T18:50:24.032Z,15.95
2018-03-30T18:52:52.239Z,15.94
2018-03-30T18:55:20.742Z,15.90
2018-03-30T18:57:49.451Z,15.63
2018-03-30T19:00:18.188Z,15.33
2018-03-30T19:02:47.288Z,15.11
2018-03-30T19:05:15.554Z,15.25
2018-03-30T19:07:44.179Z,14.93
2018-03-30T19:10:13.724Z,14.97
2018-03-30T19:12:42.783Z,14.95
2018-03-30T19:15:10.912Z,14.96
2018-03-30T19:17:38.905Z,15.08
2018-03-30T19:20:07.993Z,15.02
2018-03-30T19:22:38.302Z,15.12
2018-03-30T19:25:05.867Z,15.05
2018-03-30T19:27:34.146Z,15.09
2018-03-30T19:30:02.715Z,15.12
2018-03-30T19:32:30.582Z,15.19
2018-03-30T19:34:59.866Z,15.25
2018-03-30T19:37:28.113Z,15.24
2018-03-30T19:39:56.027Z,15.26
2018-03-30T19:42:24.020Z,15.28
2018-03-30T19:44:52.235Z,15.21
2018-03-30T19:47:20.437Z,15.19
2018-03-30T19:49:49.429Z,15.20
2018-03-30T19:52:18.426Z,15.13
2018-03-30T19:54:47.350Z,15.05
2018-03-30T19:57:16.724Z,15.05
2018-03-30T19:59:45.093Z,15.09
2018-03-30T20:02:12.862Z,15.10
2018-03-30T20:04:43.663Z,15.04
2018-03-30T20:07:12.126Z,15.06
2018-03-30T20:09:40.533Z,14.73
2018-03-30T20:12:08.220Z,14.33
2018-03-30T20:14:35.835Z,14.41
2018-03-30T20:17:04.084Z,14.56
2018-03-30T20:19:32.032Z,14.52
2018-03-30T20:22:01.947Z,14.51
2018-03-30T20:24:31.336Z,14.61
2018-03-30T20:27:00.322Z,14.62
2018-03-30T20:29:29.946Z,14.62
2018-03-30T20:31:58.214Z,14.61
2018-03-30T20:34:27.405Z,14.22
2018-03-30T20:36:55.318Z,13.91
2018-03-30T20:39:23.996Z,13.83
2018-03-30T20:41:52.331Z,13.94
2018-03-30T20:44:19.972Z,13.97
2018-03-30T20:46:47.664Z,14.11
2018-03-30T20:49:15.021Z,14.16
2018-03-30T20:51:43.007Z,14.01
2018-03-30T20:54:11.560Z,13.95
2018-03-30T20:56:39.584Z,14.06
2018-03-30T20:59:07.700Z,13.99
2018-03-30T21:01:36.144Z,13.62
2018-03-30T21:04:04.258Z,13.81
2018-03-30T21:06:32.138Z,13.86
2018-03-30T21:09:00.063Z,13.81
2018-03-30T21:11:27.964Z,13.98
2018-03-30T21:13:56.158Z,13.75
2018-03-30T21:16:23.890Z,13.68
2018-03-30T21:18:52.217Z,13.77
2018-03-30T21:21:20.029Z,13.40
2018-03-30T21:23:47.908Z,12.95
2018-03-30T21:26:15.461Z,12.98
2018-03-30T21:28:42.742Z,12.65
2018-03-30T21:31:10.456Z,12.66
2018-03-30T21:33:38.526Z,12.97
2018-03-30T21:36:06.595Z,13.14
2018-03-30T21:38:34.078Z,13.37
2018-03-30T21:41:01.175Z,13.44
2018-03-30T21:43:28.655Z,13.12
2018-03-30T21:45:55.715Z,12.72
2018-03-30T21:48:22.787Z,12.48
2018-03-30T21:50:49.816Z,12.74
2018-03-30T21:53:16.936Z,12.96
2018-03-30T21:55:43.992Z,12.54
2018-03-30T21:58:11.000Z,12.35
2018-03-30T22:00:38.080Z,12.53
2018-03-30T22:03:05.236Z,12.47
2018-03-30T22:05:32.306Z,12.53
2018-03-30T22:07:59.334Z,12.23
2018-03-30T22:10:26.395Z,12.21
2018-03-30T22:12:53.524Z,12.15
2018-03-30T22:15:20.674Z,12.12
2018-03-30T22:17:48.609Z,12.46
2018-03-30T22:20:15.637Z,12.59
2018-03-30T22:22:42.690Z,12.06
2018-03-30T22:25:09.720Z,12.03
2018-03-30T22:27:36.796Z,12.33
2018-03-30T22:30:03.817Z,12.64
2018-03-30T22:32:31.502Z,12.72
2018-03-30T22:34:58.564Z,12.87
2018-03-30T22:37:25.592Z,12.72
2018-03-30T22:39:53.274Z,12.15
2018-03-30T22:42:20.289Z,11.96
2018-03-30T22:44:47.320Z,11.70
2018-03-30T22:47:14.380Z,11.57
2018-03-30T22:49:41.400Z,11.93
2018-03-30T22:52:08.465Z,12.32
2018-03-30T22:54:35.527Z,12.63
2018-03-30T22:57:02.557Z,12.55
2018-03-30T22:59:30.364Z,11.77
2018-03-30T23:01:57.371Z,11.33
2018-03-30T23:04:24.423Z,11.12
2018-03-30T23:06:51.511Z,11.43
2018-03-30T23:09:18.535Z,11.32
2018-03-30T23:11:46.332Z,11.69
2018-03-30T23:14:13.759Z,11.92
2018-03-30T23:16:40.803Z,11.89
2018-03-30T23:19:08.394Z,11.93
2018-03-30T23:21:36.119Z,12.30
2018-03-30T23:24:03.167Z,12.48
2018-03-30T23:26:30.223Z,12.61
2018-03-30T23:28:57.241Z,12.74
2018-03-30T23:31:24.775Z,12.40
2018-03-30T23:33:52.392Z,12.29
2018-03-30T23:36:19.412Z,12.47
2018-03-30T23:38:46.495Z,12.48
2018-03-30T23:41:14.104Z,11.66
2018-03-30T23:43:41.159Z,11.54
2018-03-30T23:46:08.227Z,11.94
2018-03-30T23:48:35.739Z,12.20
2018-03-30T23:51:03.416Z,11.70
2018-03-30T23:53:30.432Z,11.17
2018-03-30T23:55:57.495Z,11.03
2018-03-30T23:58:24.514Z,11.04
